Time;durP1;ratioP1;P1;durP2;ratioP2;P2;SDS_P1;SDS_P2;PMS_P1;PMS_P2;Temp;Humidity;BMP_temperature;BMP_pressure;BME280_temperature;BME280_humidity;BME280_pressure;Samples;Min_cycle;Max_cycle;Signal;HPM_P1;HPM_P2
2022/06/10 00:02:10;;;;;;;0.50;0.50;;;13.40;99.90;;;;;;5054984;28;20434;-82
2022/06/10 00:04:37;;;;;;;0.43;0.43;;;13.40;99.90;;;;;;5055132;28;20488;-82
2022/06/10 00:07:04;;;;;;;0.50;0.50;;;13.40;99.90;;;;;;5055131;28;20460;-82
2022/06/10 00:09:31;;;;;;;1.23;0.63;;;13.40;99.90;;;;;;5054415;28;20485;-82
2022/06/10 00:11:58;;;;;;;0.40;0.30;;;13.30;99.90;;;;;;5055082;28;20449;-82
2022/06/10 00:14:25;;;;;;;0.40;0.40;;;13.30;99.90;;;;;;5054933;28;20481;-82
2022/06/10 00:16:53;;;;;;;1.20;0.37;;;13.30;99.90;;;;;;5055359;28;20817;-82
2022/06/10 00:19:20;;;;;;;0.80;0.80;;;13.20;99.90;;;;;;5054570;28;21007;-82
2022/06/10 00:21:47;;;;;;;0.30;0.30;;;13.20;99.90;;;;;;5054923;28;20521;-82
2022/06/10 00:24:13;;;;;;;0.40;0.40;;;13.10;99.90;;;;;;5054737;28;20480;-82
2022/06/10 00:26:40;;;;;;;0.40;0.40;;;13.10;99.90;;;;;;5054275;28;20473;-82
2022/06/10 00:29:07;;;;;;;0.60;0.37;;;13.00;99.90;;;;;;5054452;28;20829;-82
2022/06/10 00:31:34;;;;;;;0.40;0.30;;;12.90;99.90;;;;;;5054464;28;20794;-82
2022/06/10 00:34:02;;;;;;;0.47;0.30;;;13.00;99.90;;;;;;5054545;28;20481;-82
2022/06/10 00:36:28;;;;;;;0.50;0.40;;;12.90;99.90;;;;;;5054287;28;20975;-82
2022/06/10 00:38:56;;;;;;;0.80;0.40;;;12.90;99.90;;;;;;5054523;28;20446;-82
2022/06/10 00:41:22;;;;;;;0.30;0.20;;;12.90;99.90;;;;;;5054085;28;21000;-82
2022/06/10 00:43:50;;;;;;;0.77;0.67;;;12.80;99.90;;;;;;5054379;28;20548;-82
2022/06/10 00:46:26;;;;;;;1.33;0.67;;;12.80;99.90;;;;;;5054090;28;20952;-82
2022/06/10 00:48:58;;;;;;;0.63;0.60;;;12.80;99.90;;;;;;5054373;28;20444;-82
2022/06/10 00:51:34;;;;;;;0.40;0.40;;;12.80;99.90;;;;;;5054020;28;20805;-82
2022/06/10 00:54:08;;;;;;;0.50;0.40;;;12.80;99.90;;;;;;5054253;28;20476;-82
2022/06/10 00:56:37;;;;;;;1.50;0.50;;;12.70;99.90;;;;;;5054278;28;20434;-82
2022/06/10 00:59:09;;;;;;;0.40;0.40;;;12.70;99.90;;;;;;5054148;28;20457;-82
2022/06/10 01:01:37;;;;;;;0.90;0.40;;;12.60;99.90;;;;;;5054146;28;20418;-82
2022/06/10 01:04:04;;;;;;;0.50;0.50;;;12.60;99.90;;;;;;5053951;28;20469;-82
2022/06/10 01:06:33;;;;;;;0.70;0.43;;;12.60;99.90;;;;;;5053766;28;20936;-82
2022/06/10 01:09:02;;;;;;;0.40;0.30;;;12.60;99.90;;;;;;5053728;28;20426;-82
2022/06/10 01:11:44;;;;;;;0.70;0.37;;;12.50;99.90;;;;;;5053948;28;20442;-82
2022/06/10 01:14:28;;;;;;;0.50;0.40;;;12.50;99.90;;;;;;5053901;28;20461;-82
2022/06/10 01:17:04;;;;;;;0.70;0.43;;;12.50;99.90;;;;;;5053590;28;20912;-82
2022/06/10 01:19:56;;;;;;;0.50;0.50;;;12.40;99.90;;;;;;5053743;28;20441;-82
2022/06/10 01:22:48;;;;;;;1.33;0.40;;;12.40;99.90;;;;;;5052728;28;20818;-82
2022/06/10 01:25:43;;;;;;;1.10;0.63;;;12.40;99.90;;;;;;5053686;28;20461;-82
2022/06/10 01:28:20;;;;;;;0.40;0.40;;;12.30;99.90;;;;;;5053696;28;20436;-82
2022/06/10 01:31:14;;;;;;;0.40;0.40;;;12.30;99.90;;;;;;5054081;28;20811;-82
2022/06/10 01:33:58;;;;;;;0.30;0.30;;;12.30;99.90;;;;;;5051520;28;20849;-82
2022/06/10 01:36:32;;;;;;;0.53;0.40;;;12.30;99.90;;;;;;5053735;28;20869;-82
2022/06/10 01:39:06;;;;;;;0.40;0.30;;;12.20;99.90;;;;;;5053541;28;20445;-82
2022/06/10 01:41:41;;;;;;;0.30;0.30;;;12.20;99.90;;;;;;5053446;28;20469;-82
2022/06/10 01:44:17;;;;;;;0.30;0.30;;;12.20;99.90;;;;;;5054260;28;20473;-82
2022/06/10 01:46:51;;;;;;;0.30;0.30;;;12.20;99.90;;;;;;5053131;28;20918;-82
2022/06/10 01:49:24;;;;;;;0.37;0.30;;;12.20;99.90;;;;;;5053338;28;20420;-82
2022/06/10 01:51:59;;;;;;;0.40;0.30;;;12.20;99.90;;;;;;5053108;28;20949;-82
2022/06/10 01:54:33;;;;;;;0.50;0.50;;;12.20;99.90;;;;;;5053247;28;20471;-82
2022/06/10 01:57:04;;;;;;;0.63;0.40;;;12.20;99.90;;;;;;5053376;28;20437;-82
2022/06/10 01:59:36;;;;;;;0.40;0.40;;;12.20;99.90;;;;;;5053243;28;20430;-82
2022/06/10 02:02:07;;;;;;;0.70;0.40;;;12.20;99.90;;;;;;5053055;28;20411;-82
2022/06/10 02:04:39;;;;;;;1.23;0.60;;;12.10;99.90;;;;;;5053177;28;20473;-82
2022/06/10 02:07:13;;;;;;;0.40;0.40;;;12.10;99.90;;;;;;5053218;28;20438;-82
2022/06/10 02:09:43;;;;;;;0.57;0.40;;;12.10;99.90;;;;;;5053241;28;20496;-82
2022/06/10 02:12:19;;;;;;;0.60;0.33;;;12.10;99.90;;;;;;5053271;28;20414;-82
2022/06/10 02:14:51;;;;;;;0.60;0.33;;;12.10;99.90;;;;;;5053082;28;20472;-82
2022/06/10 02:17:22;;;;;;;0.43;0.40;;;12.10;99.90;;;;;;5053144;28;20422;-82
2022/06/10 02:19:54;;;;;;;0.50;0.50;;;12.00;99.90;;;;;;5053026;28;20429;-82
2022/06/10 02:22:25;;;;;;;0.40;0.30;;;12.00;99.90;;;;;;5053130;28;20422;-82
2022/06/10 02:24:57;;;;;;;0.50;0.50;;;12.00;99.90;;;;;;5052662;28;20453;-82
2022/06/10 02:27:28;;;;;;;0.53;0.53;;;12.00;99.90;;;;;;5052617;28;20481;-82
2022/06/10 02:30:00;;;;;;;0.30;0.30;;;12.10;99.90;;;;;;5053297;28;20411;-82
2022/06/10 02:32:30;;;;;;;0.47;0.47;;;12.10;99.90;;;;;;5052933;28;20438;-82
2022/06/10 02:34:57;;;;;;;0.60;0.60;;;12.10;99.90;;;;;;5056557;28;20480;-82
2022/06/10 02:37:31;;;;;;;0.40;0.30;;;12.10;99.90;;;;;;5056851;28;20544;-82
2022/06/10 02:40:08;;;;;;;0.40;0.37;;;12.10;99.90;;;;;;5056731;28;20441;-82
2022/06/10 02:42:42;;;;;;;0.97;0.33;;;12.10;99.90;;;;;;5056793;28;20472;-82
2022/06/10 02:45:19;;;;;;;0.40;0.30;;;12.00;99.90;;;;;;5056540;28;20500;-82
2022/06/10 02:47:51;;;;;;;1.03;0.40;;;12.00;99.90;;;;;;5056493;28;20779;-82
2022/06/10 02:50:18;;;;;;;0.40;0.40;;;12.00;99.90;;;;;;5056643;28;20433;-82
2022/06/10 02:52:47;;;;;;;0.40;0.30;;;12.00;99.90;;;;;;5056569;28;20441;-81
2022/06/10 02:55:16;;;;;;;0.77;0.50;;;12.00;99.90;;;;;;5056453;28;20478;-82
2022/06/10 03:03:33;;;;;;;0.50;0.40;;;12.00;99.90;;;;;;5056304;28;20464;-82
2022/06/10 03:06:08;;;;;;;0.63;0.57;;;11.90;99.90;;;;;;5056379;28;20429;-82
2022/06/10 03:08:39;;;;;;;0.67;0.30;;;11.90;99.90;;;;;;5056298;28;20445;-82
2022/06/10 03:11:16;;;;;;;0.40;0.40;;;12.00;99.90;;;;;;5056279;28;20437;-82
2022/06/10 03:13:54;;;;;;;0.50;0.40;;;12.00;99.90;;;;;;5056157;28;20469;-82
2022/06/10 03:16:38;;;;;;;0.70;0.30;;;11.90;99.90;;;;;;5057008;28;20429;-82
2022/06/10 03:19:14;;;;;;;0.53;0.50;;;11.90;99.90;;;;;;5056173;28;20437;-82
2022/06/10 03:21:51;;;;;;;1.20;0.57;;;11.80;99.90;;;;;;5056041;28;20511;-82
2022/06/10 03:24:26;;;;;;;1.07;0.40;;;11.80;99.90;;;;;;5055897;28;20465;-82
2022/06/10 03:27:00;;;;;;;0.40;0.30;;;11.80;99.90;;;;;;5055610;28;20484;-82
2022/06/10 03:29:34;;;;;;;0.40;0.30;;;11.80;99.90;;;;;;5055929;28;20429;-82
2022/06/10 03:32:07;;;;;;;0.77;0.37;;;11.70;99.90;;;;;;5055642;28;20510;-82
2022/06/10 03:34:38;;;;;;;0.50;0.30;;;11.70;99.90;;;;;;5055761;28;20478;-82
2022/06/10 03:37:07;;;;;;;0.40;0.40;;;11.70;99.90;;;;;;5055842;28;20920;-82
2022/06/10 03:39:34;;;;;;;0.40;0.40;;;11.70;99.90;;;;;;5055669;28;20458;-82
2022/06/10 03:42:08;;;;;;;0.63;0.57;;;11.80;99.90;;;;;;5055336;28;20480;-82
2022/06/10 03:44:35;;;;;;;0.40;0.30;;;11.70;99.90;;;;;;5054472;28;20466;-82
2022/06/10 03:47:04;;;;;;;0.50;0.43;;;11.70;99.90;;;;;;5055521;28;20445;-82
2022/06/10 03:49:36;;;;;;;2.60;0.50;;;11.70;99.90;;;;;;5055204;28;20934;-82
2022/06/10 03:52:05;;;;;;;0.70;0.50;;;11.80;99.90;;;;;;5055525;28;20595;-82
2022/06/10 03:54:32;;;;;;;0.30;0.30;;;11.80;99.90;;;;;;5055181;28;20461;-81
2022/06/10 03:56:59;;;;;;;0.60;0.37;;;11.80;99.90;;;;;;5055115;28;20433;-82
2022/06/10 03:59:26;;;;;;;0.37;0.33;;;11.90;99.90;;;;;;5055313;28;20457;-82
2022/06/10 04:01:52;;;;;;;0.43;0.37;;;11.90;99.90;;;;;;5055164;28;20481;-81
2022/06/10 04:04:19;;;;;;;0.40;0.30;;;11.90;99.90;;;;;;5055158;28;20477;-81
2022/06/10 04:06:46;;;;;;;0.30;0.30;;;12.00;99.90;;;;;;5055181;28;20449;-81
2022/06/10 04:09:14;;;;;;;0.50;0.50;;;12.00;99.90;;;;;;5055073;28;20438;-81
2022/06/10 04:11:41;;;;;;;0.37;0.30;;;12.00;99.90;;;;;;5054971;28;20454;-82
2022/06/10 04:14:08;;;;;;;1.20;0.47;;;12.00;99.90;;;;;;5054699;28;20453;-81
2022/06/10 04:16:35;;;;;;;0.37;0.30;;;12.00;99.90;;;;;;5055003;28;20471;-82
2022/06/10 04:19:02;;;;;;;0.40;0.30;;;12.10;99.90;;;;;;5055012;28;20500;-82
2022/06/10 04:21:29;;;;;;;0.40;0.40;;;12.10;99.90;;;;;;5054858;28;20481;-82
2022/06/10 04:23:56;;;;;;;0.40;0.37;;;12.10;99.90;;;;;;5054447;28;20474;-82
2022/06/10 04:26:24;;;;;;;0.40;0.40;;;12.10;99.90;;;;;;5054515;28;20492;-82
2022/06/10 04:28:51;;;;;;;0.53;0.53;;;12.10;99.90;;;;;;5054785;28;20458;-82
2022/06/10 04:31:18;;;;;;;1.60;0.50;;;12.20;99.90;;;;;;5054715;28;20446;-82
2022/06/10 04:33:45;;;;;;;0.97;0.40;;;12.20;99.90;;;;;;5054557;28;20468;-82
2022/06/10 04:36:14;;;;;;;15.70;2.63;;;12.20;99.90;;;;;;5054602;28;20460;-82
2022/06/10 04:38:41;;;;;;;0.73;0.33;;;12.20;99.90;;;;;;5054352;28;20528;-82
2022/06/10 04:41:08;;;;;;;0.40;0.30;;;12.30;99.90;;;;;;5054271;28;20848;-82
2022/06/10 04:43:36;;;;;;;0.47;0.30;;;12.30;99.90;;;;;;5054161;28;20468;-82
2022/06/10 04:46:06;;;;;;;0.50;0.50;;;12.40;99.90;;;;;;5054736;28;20445;-82
2022/06/10 04:48:33;;;;;;;0.30;0.30;;;12.40;99.90;;;;;;5054189;28;20926;-82
2022/06/10 04:51:00;;;;;;;0.50;0.40;;;12.50;99.90;;;;;;5054341;28;20457;-81
2022/06/10 04:53:27;;;;;;;0.40;0.40;;;12.50;99.90;;;;;;5054212;28;20473;-81
2022/06/10 04:55:54;;;;;;;0.60;0.50;;;12.50;99.90;;;;;;5053727;28;20450;-81
2022/06/10 04:58:21;;;;;;;0.40;0.40;;;12.60;99.90;;;;;;5053955;28;20918;-82
2022/06/10 05:00:49;;;;;;;0.40;0.30;;;12.60;99.90;;;;;;5054083;28;20517;-82
2022/06/10 05:03:17;;;;;;;0.40;0.40;;;12.60;99.90;;;;;;5053999;28;20562;-81
2022/06/10 05:05:43;;;;;;;0.80;0.37;;;12.70;99.90;;;;;;5054057;28;20449;-81
2022/06/10 05:08:13;;;;;;;0.40;0.40;;;12.80;99.90;;;;;;5055009;28;20458;-82
2022/06/10 05:10:40;;;;;;;2.00;0.50;;;12.90;99.90;;;;;;5053649;28;20452;-79
2022/06/10 05:13:07;;;;;;;0.50;0.40;;;12.90;99.90;;;;;;5053848;28;20886;-79
2022/06/10 05:15:34;;;;;;;0.40;0.40;;;13.00;99.90;;;;;;5053581;28;20832;-79
2022/06/10 05:18:03;;;;;;;0.40;0.30;;;13.10;99.90;;;;;;5053538;28;20450;-79
2022/06/10 05:20:34;;;;;;;0.30;0.30;;;13.20;99.90;;;;;;5053700;28;20456;-79
2022/06/10 05:23:01;;;;;;;0.40;0.33;;;13.30;99.90;;;;;;5053712;28;20430;-80
2022/06/10 05:25:28;;;;;;;1.17;0.50;;;13.40;99.90;;;;;;5053331;28;20921;-80
2022/06/10 05:27:55;;;;;;;0.40;0.40;;;13.40;99.90;;;;;;5053767;28;20501;-80
2022/06/10 05:30:24;;;;;;;0.40;0.40;;;13.50;99.90;;;;;;5053602;28;20457;-79
2022/06/10 05:32:51;;;;;;;1.00;0.50;;;13.50;99.90;;;;;;5053249;28;20929;-80
2022/06/10 05:35:19;;;;;;;0.90;0.83;;;13.60;99.90;;;;;;5053274;28;20956;-79
2022/06/10 05:37:47;;;;;;;0.50;0.37;;;13.70;99.90;;;;;;5053525;28;20461;-79
2022/06/10 05:40:15;;;;;;;0.40;0.30;;;13.70;99.90;;;;;;5053474;28;20449;-79
2022/06/10 05:42:43;;;;;;;0.30;0.30;;;13.80;99.90;;;;;;5053096;28;20488;-79
2022/06/10 05:45:13;;;;;;;0.40;0.30;;;13.90;99.90;;;;;;5053323;28;20469;-79
2022/06/10 05:47:41;;;;;;;0.40;0.40;;;14.00;99.90;;;;;;5053411;28;20537;-80
2022/06/10 05:50:12;;;;;;;0.60;0.60;;;14.10;99.90;;;;;;5053370;28;20441;-79
2022/06/10 05:52:40;;;;;;;0.60;0.40;;;14.20;99.90;;;;;;5053582;28;20952;-79
2022/06/10 05:55:09;;;;;;;1.13;0.50;;;14.30;99.90;;;;;;5053217;28;20461;-79
2022/06/10 05:57:35;;;;;;;0.60;0.60;;;14.40;99.90;;;;;;5053321;28;20540;-80
2022/06/10 06:00:03;;;;;;;0.57;0.57;;;14.60;99.90;;;;;;5053271;28;20503;-79
2022/06/10 06:02:30;;;;;;;0.60;0.40;;;14.80;99.90;;;;;;5053148;28;20531;-79
2022/06/10 06:04:58;;;;;;;0.50;0.40;;;15.10;99.90;;;;;;5052833;28;20478;-79
2022/06/10 06:07:27;;;;;;;0.60;0.40;;;15.30;99.90;;;;;;5053213;28;20454;-79
2022/06/10 06:09:56;;;;;;;0.60;0.40;;;15.50;99.90;;;;;;5057072;28;20448;-79
2022/06/10 06:12:23;;;;;;;0.80;0.53;;;15.70;99.90;;;;;;5057066;28;21005;-80
2022/06/10 06:14:50;;;;;;;0.37;0.30;;;16.00;99.90;;;;;;5056964;28;20454;-80
2022/06/10 06:17:19;;;;;;;0.50;0.50;;;16.20;99.90;;;;;;5057207;28;20492;-80
2022/06/10 06:19:46;;;;;;;0.70;0.50;;;16.50;99.90;;;;;;5056942;28;20454;-80
2022/06/10 06:22:13;;;;;;;0.50;0.40;;;16.90;99.90;;;;;;5056830;28;20531;-80
2022/06/10 06:24:39;;;;;;;0.90;0.50;;;17.20;99.90;;;;;;5057064;28;20830;-80
2022/06/10 06:27:09;;;;;;;0.60;0.60;;;17.60;99.90;;;;;;5056593;28;20476;-80
2022/06/10 06:29:36;;;;;;;0.43;0.43;;;18.00;99.90;;;;;;5056866;28;20448;-80
2022/06/10 06:32:04;;;;;;;3.10;0.60;;;18.30;99.90;;;;;;5057037;28;20445;-81
2022/06/10 06:34:30;;;;;;;0.60;0.60;;;18.80;99.90;;;;;;5056876;28;20480;-83
2022/06/10 06:36:58;;;;;;;1.43;0.60;;;18.90;99.90;;;;;;5056591;28;20548;-82
2022/06/10 06:39:27;;;;;;;0.77;0.50;;;19.00;99.90;;;;;;5056871;28;20207;-83
2022/06/10 06:41:55;;;;;;;0.68;0.68;;;19.60;99.90;;;;;;5056749;28;20223;-83
2022/06/10 06:44:23;;;;;;;0.60;0.60;;;20.00;99.90;;;;;;5056747;28;20234;-83
2022/06/10 06:46:50;;;;;;;0.90;0.65;;;20.20;99.90;;;;;;5056726;28;20203;-83
2022/06/10 06:49:20;;;;;;;0.88;0.52;;;20.40;99.90;;;;;;5056551;28;20583;-83
2022/06/10 06:51:47;;;;;;;0.60;0.50;;;20.70;99.90;;;;;;5056474;28;20570;-82
2022/06/10 06:54:15;;;;;;;0.50;0.50;;;21.10;99.90;;;;;;5056510;28;20222;-83
2022/06/10 06:56:42;;;;;;;0.52;0.52;;;21.30;99.90;;;;;;5056542;28;20206;-83
2022/06/10 06:59:09;;;;;;;0.60;0.50;;;21.50;99.90;;;;;;5056457;28;20203;-83
2022/06/10 07:01:37;;;;;;;0.40;0.40;;;21.40;99.90;;;;;;5056390;28;20223;-83
2022/06/10 07:04:05;;;;;;;0.50;0.50;;;21.40;99.90;;;;;;5056345;28;20230;-83
2022/06/10 07:06:32;;;;;;;0.50;0.50;;;21.20;99.90;;;;;;5056354;28;20721;-83
2022/06/10 07:08:59;;;;;;;2.03;0.70;;;21.30;99.90;;;;;;5056093;28;20195;-83
2022/06/10 07:11:25;;;;;;;0.50;0.40;;;21.10;99.90;;;;;;5056263;28;20203;-83
2022/06/10 07:13:52;;;;;;;0.60;0.50;;;20.90;99.90;;;;;;5056231;28;20225;-83
2022/06/10 07:16:19;;;;;;;0.50;0.50;;;20.70;99.90;;;;;;5055920;28;20198;-83
2022/06/10 07:18:47;;;;;;;0.97;0.67;;;20.70;99.90;;;;;;5056043;28;20207;-83
2022/06/10 07:21:14;;;;;;;0.50;0.50;;;20.80;99.90;;;;;;5055698;28;20678;-83
2022/06/10 07:23:41;;;;;;;0.50;0.50;;;20.90;99.90;;;;;;5055876;28;20234;-83
2022/06/10 07:26:08;;;;;;;0.57;0.50;;;21.00;99.90;;;;;;5055699;28;20250;-83
2022/06/10 07:28:35;;;;;;;0.47;0.47;;;21.10;99.90;;;;;;5055979;28;20207;-83
2022/06/10 07:31:02;;;;;;;0.57;0.57;;;21.10;99.90;;;;;;5055931;28;20202;-83
2022/06/10 07:33:30;;;;;;;0.50;0.50;;;21.30;99.90;;;;;;5055727;28;20222;-83
2022/06/10 07:35:58;;;;;;;0.75;0.65;;;21.50;99.90;;;;;;5056076;28;20207;-83
2022/06/10 07:38:25;;;;;;;0.45;0.45;;;21.90;99.90;;;;;;5055759;28;20203;-83
2022/06/10 07:43:36;;;;;;;3.08;0.60;;;22.60;99.90;;;;;;5055630;28;20225;-83
2022/06/10 07:46:04;;;;;;;0.65;0.65;;;23.10;99.90;;;;;;5055629;28;20210;-83
2022/06/10 07:48:32;;;;;;;0.50;0.50;;;23.80;99.90;;;;;;5055539;28;20207;-83
2022/06/10 07:51:00;;;;;;;0.50;0.50;;;24.60;99.90;;;;;;5055501;28;20211;-83
2022/06/10 07:53:29;;;;;;;1.13;0.60;;;25.30;99.90;;;;;;5055423;28;20223;-83
2022/06/10 07:55:56;;;;;;;0.80;0.50;;;25.90;99.50;;;;;;5055428;28;20202;-83
2022/06/10 07:58:24;;;;;;;0.80;0.80;;;26.40;97.50;;;;;;5055051;28;20206;-83
2022/06/10 08:00:51;;;;;;;1.02;0.60;;;26.80;94.60;;;;;;5055247;28;20220;-83
2022/06/10 08:03:18;;;;;;;0.60;0.60;;;26.80;93.30;;;;;;5055131;28;20233;-83
2022/06/10 08:05:45;;;;;;;0.63;0.63;;;26.90;92.10;;;;;;5054975;28;20546;-83
2022/06/10 08:08:17;;;;;;;1.30;0.50;;;26.80;92.20;;;;;;5055257;28;20666;-84
2022/06/10 08:10:44;;;;;;;0.40;0.40;;;26.70;91.50;;;;;;5055155;28;20197;-83
2022/06/10 08:13:11;;;;;;;0.50;0.50;;;26.80;90.00;;;;;;5054706;28;20200;-83
2022/06/10 08:15:38;;;;;;;1.42;0.75;;;27.30;85.60;;;;;;5055084;28;20215;-83
2022/06/10 08:18:07;;;;;;;0.65;0.52;;;27.60;83.80;;;;;;5055034;28;20199;-83
2022/06/10 08:23:23;;;;;;;0.50;0.50;;;27.80;84.40;;;;;;5054787;28;20357;-83
2022/06/10 08:25:50;;;;;;;0.70;0.70;;;27.80;83.40;;;;;;5054640;28;20327;-83
2022/06/10 08:28:17;;;;;;;0.95;0.65;;;27.20;81.70;;;;;;5054556;28;20555;-83
2022/06/10 08:30:44;;;;;;;0.50;0.50;;;26.30;80.00;;;;;;5054002;28;20207;-83
2022/06/10 08:33:11;;;;;;;0.65;0.55;;;25.30;82.80;;;;;;5054422;28;20210;-82
2022/06/10 08:35:38;;;;;;;0.50;0.50;;;24.40;85.50;;;;;;5054630;28;20563;-83
2022/06/10 08:38:08;;;;;;;1.50;0.75;;;23.70;89.20;;;;;;5054626;28;20207;-83
2022/06/10 08:40:47;;;;;;;0.40;0.40;;;23.10;90.80;;;;;;5054500;28;20285;-83
2022/06/10 08:43:25;;;;;;;0.50;0.50;;;22.50;92.50;;;;;;5054443;28;20226;-83
2022/06/10 08:45:58;;;;;;;0.50;0.50;;;21.90;92.80;;;;;;5054366;28;20206;-83
2022/06/10 08:48:30;;;;;;;0.50;0.50;;;21.50;93.20;;;;;;5054496;28;20195;-83
2022/06/10 08:51:13;;;;;;;0.90;0.60;;;21.30;94.30;;;;;;5054467;28;20179;-83
2022/06/10 08:54:06;;;;;;;0.60;0.50;;;21.00;94.40;;;;;;5054296;28;20215;-83
2022/06/10 08:56:40;;;;;;;1.73;0.50;;;20.70;94.60;;;;;;5054360;28;20195;-83
2022/06/10 08:59:14;;;;;;;0.50;0.50;;;20.40;95.30;;;;;;5054303;28;20433;-83
2022/06/10 09:01:47;;;;;;;0.70;0.67;;;20.30;96.20;;;;;;5054198;28;20437;-83
2022/06/10 09:04:29;;;;;;;0.50;0.40;;;20.10;97.20;;;;;;5053839;28;20464;-83
2022/06/10 09:07:01;;;;;;;2.00;0.50;;;20.00;96.60;;;;;;5053841;28;20913;-83
2022/06/10 09:09:32;;;;;;;0.50;0.50;;;19.90;96.20;;;;;;5054142;28;20414;-83
2022/06/10 09:12:09;;;;;;;0.50;0.50;;;19.80;96.50;;;;;;5054255;28;20429;-82
2022/06/10 09:14:36;;;;;;;0.43;0.43;;;19.70;96.60;;;;;;5053934;28;20465;-82
2022/06/10 09:17:10;;;;;;;0.40;0.37;;;19.80;96.80;;;;;;5053914;28;20449;-82
2022/06/10 09:19:47;;;;;;;1.00;0.60;;;19.80;96.40;;;;;;5053890;28;20465;-82
2022/06/10 09:22:23;;;;;;;0.60;0.50;;;19.80;96.10;;;;;;5054367;28;20465;-82
2022/06/10 09:24:56;;;;;;;0.60;0.50;;;19.70;96.30;;;;;;5053723;28;20480;-83
2022/06/10 09:27:29;;;;;;;0.50;0.50;;;19.70;97.00;;;;;;5053301;28;20485;-82
2022/06/10 09:29:58;;;;;;;1.53;0.80;;;19.80;97.50;;;;;;5053776;28;20433;-82
2022/06/10 09:32:35;;;;;;;1.03;0.50;;;19.90;98.20;;;;;;5053710;28;20506;-82
2022/06/10 09:35:07;;;;;;;0.67;0.40;;;20.10;97.60;;;;;;5053303;28;20468;-82
2022/06/10 09:37:41;;;;;;;0.80;0.50;;;20.10;97.60;;;;;;5053684;28;20432;-83
2022/06/10 09:43:25;;;;;;;0.50;0.50;;;20.10;97.40;;;;;;5052337;28;20471;-82
2022/06/10 09:46:02;;;;;;;0.50;0.50;;;20.00;97.60;;;;;;5053705;28;20490;-83
2022/06/10 09:48:47;;;;;;;1.10;0.60;;;19.90;97.70;;;;;;5053520;28;20466;-82
2022/06/10 09:51:21;;;;;;;3.00;0.47;;;19.80;98.10;;;;;;5053446;28;20433;-82
2022/06/10 09:54:03;;;;;;;0.40;0.40;;;19.70;98.90;;;;;;5053357;28;20457;-82
2022/06/10 09:56:51;;;;;;;0.80;0.50;;;19.70;98.00;;;;;;5053132;28;20430;-82
2022/06/10 09:59:27;;;;;;;0.50;0.50;;;19.70;99.10;;;;;;5053976;28;20445;-82
2022/06/10 10:02:04;;;;;;;0.40;0.40;;;19.70;98.40;;;;;;5053479;28;20449;-82
2022/06/10 10:04:46;;;;;;;0.50;0.50;;;19.90;97.40;;;;;;5053226;28;20460;-82
2022/06/10 10:07:23;;;;;;;4.00;0.60;;;20.10;97.00;;;;;;5053306;28;20433;-82
2022/06/10 10:09:59;;;;;;;0.50;0.40;;;20.30;96.80;;;;;;5052964;28;20437;-82
2022/06/10 10:12:44;;;;;;;1.80;0.60;;;20.60;96.70;;;;;;5053222;28;20448;-82
2022/06/10 10:15:21;;;;;;;0.80;0.70;;;21.10;94.70;;;;;;5053168;28;20540;-82
2022/06/10 10:18:23;;;;;;;0.50;0.50;;;21.60;94.00;;;;;;5053215;28;20437;-82
2022/06/10 10:21:09;;;;;;;0.40;0.40;;;22.00;93.30;;;;;;5053150;28;20502;-82
2022/06/10 10:23:39;;;;;;;0.50;0.50;;;22.30;93.10;;;;;;5052663;28;20488;-81
2022/06/10 10:26:14;;;;;;;0.47;0.43;;;22.60;91.60;;;;;;5052658;28;20469;-82
2022/06/10 10:28:42;;;;;;;0.50;0.50;;;22.90;90.80;;;;;;5053092;28;20428;-80
2022/06/10 10:31:16;;;;;;;0.50;0.50;;;22.90;90.30;;;;;;5052733;28;20956;-80
2022/06/10 10:33:43;;;;;;;0.53;0.53;;;23.10;91.00;;;;;;5052588;28;20465;-80
2022/06/10 10:36:17;;;;;;;0.50;0.50;;;23.20;90.50;;;;;;5052965;28;20211;-80
2022/06/10 10:38:46;;;;;;;0.50;0.50;;;23.20;91.60;;;;;;5052757;28;20191;-80
2022/06/10 10:41:19;;;;;;;0.50;0.50;;;23.40;90.80;;;;;;5052979;28;20210;-80
2022/06/10 10:43:49;;;;;;;0.47;0.47;;;23.50;89.90;;;;;;5052836;28;20230;-80
2022/06/10 10:46:37;;;;;;;0.40;0.40;;;23.60;90.60;;;;;;5052927;28;20658;-80
2022/06/10 10:49:17;;;;;;;0.50;0.50;;;23.30;90.40;;;;;;5052877;28;20209;-80
2022/06/10 10:51:49;;;;;;;0.50;0.50;;;23.10;90.20;;;;;;5052887;28;20266;-80
2022/06/10 10:54:20;;;;;;;2.35;0.70;;;23.20;91.70;;;;;;5053662;28;20694;-80
2022/06/10 10:56:49;;;;;;;0.50;0.50;;;23.50;90.20;;;;;;5056333;28;20183;-81
2022/06/10 10:59:30;;;;;;;0.60;0.60;;;23.90;89.60;;;;;;5056552;28;20285;-80
2022/06/10 11:01:58;;;;;;;0.50;0.50;;;24.70;86.60;;;;;;5056216;28;20191;-81
2022/06/10 11:04:28;;;;;;;1.38;0.60;;;25.30;83.90;;;;;;5056023;28;20222;-80
2022/06/10 11:07:01;;;;;;;0.50;0.50;;;25.20;82.20;;;;;;5056149;28;20673;-80
2022/06/10 11:09:28;;;;;;;0.60;0.60;;;25.30;83.60;;;;;;5056379;28;20183;-80
2022/06/10 11:11:57;;;;;;;1.30;0.47;;;25.10;84.40;;;;;;5056300;28;20203;-80
2022/06/10 11:14:28;;;;;;;0.47;0.47;;;25.10;81.20;;;;;;5056195;28;20569;-80
2022/06/10 11:17:17;;;;;;;1.08;0.55;;;25.00;82.20;;;;;;5056209;28;20187;-80
2022/06/10 11:19:48;;;;;;;0.50;0.50;;;24.50;80.40;;;;;;5056178;28;20187;-80
2022/06/10 11:22:25;;;;;;;0.60;0.50;;;24.30;80.90;;;;;;5055818;28;20542;-80
2022/06/10 11:24:55;;;;;;;0.60;0.50;;;24.00;81.10;;;;;;5055950;28;20218;-81
2022/06/10 11:27:35;;;;;;;0.40;0.40;;;23.50;83.20;;;;;;5055755;28;20234;-80
2022/06/10 11:30:15;;;;;;;0.45;0.45;;;23.10;83.50;;;;;;5055929;28;20221;-80
2022/06/10 11:32:53;;;;;;;0.57;0.50;;;22.60;84.40;;;;;;5055945;28;20190;-80
2022/06/10 11:35:24;;;;;;;2.43;0.50;;;22.40;87.30;;;;;;5056058;28;20463;-80
2022/06/10 11:37:55;;;;;;;0.60;0.47;;;22.20;87.00;;;;;;5055854;28;20194;-80
2022/06/10 11:40:25;;;;;;;0.70;0.40;;;22.10;88.20;;;;;;5055818;28;20195;-80
2022/06/10 11:42:58;;;;;;;0.67;0.40;;;21.90;89.30;;;;;;5055795;28;20473;-80
2022/06/10 11:45:30;;;;;;;0.40;0.40;;;21.80;88.70;;;;;;5056047;28;20191;-80
2022/06/10 11:48:05;;;;;;;0.50;0.50;;;21.90;87.20;;;;;;5055674;28;20198;-80
2022/06/10 11:50:37;;;;;;;0.63;0.40;;;21.90;88.70;;;;;;5055926;28;20413;-80
2022/06/10 11:53:11;;;;;;;0.57;0.50;;;21.90;89.10;;;;;;5055495;28;20434;-80
2022/06/10 11:55:41;;;;;;;0.60;0.50;;;22.20;87.20;;;;;;5055545;28;20193;-80
2022/06/10 12:01:07;;;;;;;0.60;0.50;;;22.50;85.60;;;;;;5055448;28;20432;-80
2022/06/10 12:03:41;;;;;;;0.40;0.40;;;22.60;84.20;;;;;;5055188;28;20489;-80
2022/06/10 12:06:13;;;;;;;0.40;0.40;;;22.50;84.50;;;;;;5054213;28;20413;-80
2022/06/10 12:08:45;;;;;;;0.50;0.50;;;22.60;86.30;;;;;;5055284;28;20202;-79
2022/06/10 12:11:27;;;;;;;2.93;0.60;;;22.80;83.70;;;;;;5055241;28;20187;-79
2022/06/10 12:14:03;;;;;;;1.57;0.60;;;23.10;83.60;;;;;;5054791;28;20468;-80
2022/06/10 12:16:31;;;;;;;0.80;0.50;;;23.20;83.80;;;;;;5054879;28;20179;-80
2022/06/10 12:19:01;;;;;;;0.57;0.40;;;23.30;83.50;;;;;;5055119;28;20199;-80
2022/06/10 12:21:29;;;;;;;2.53;0.60;;;23.40;83.20;;;;;;5055036;28;20202;-80
2022/06/10 12:23:56;;;;;;;0.40;0.33;;;23.40;80.10;;;;;;5054812;28;20569;-80
2022/06/10 12:26:38;;;;;;;0.97;0.60;;;23.20;81.00;;;;;;5054399;28;20238;-79
2022/06/10 12:29:13;;;;;;;0.70;0.63;;;23.30;80.70;;;;;;5054912;28;20190;-80
2022/06/10 12:31:52;;;;;;;0.50;0.50;;;23.30;81.80;;;;;;5055272;28;20213;-80
2022/06/10 12:34:32;;;;;;;3.23;0.67;;;23.50;81.80;;;;;;5054736;28;20268;-79
2022/06/10 12:37:05;;;;;;;0.73;0.60;;;23.50;78.60;;;;;;5055471;28;20573;-80
2022/06/10 12:39:40;;;;;;;0.53;0.50;;;23.30;79.50;;;;;;5054402;28;20195;-79
2022/06/10 12:42:14;;;;;;;0.70;0.47;;;23.10;79.20;;;;;;5054649;28;20183;-79
2022/06/10 12:44:48;;;;;;;0.40;0.40;;;22.90;80.10;;;;;;5054195;28;20226;-80
2022/06/10 12:47:27;;;;;;;0.57;0.40;;;22.80;79.60;;;;;;5054929;28;20553;-79
2022/06/10 12:50:01;;;;;;;0.57;0.57;;;22.90;80.10;;;;;;5054269;28;20175;-80
2022/06/10 12:52:45;;;;;;;0.60;0.60;;;22.80;79.90;;;;;;5054133;28;20666;-79
2022/06/10 12:55:25;;;;;;;0.40;0.40;;;22.70;80.90;;;;;;5054267;28;20480;-80
2022/06/10 12:57:53;;;;;;;0.77;0.60;;;22.50;81.40;;;;;;5054379;28;20736;-80
2022/06/10 13:00:42;;;;;;;1.13;0.50;;;22.40;82.00;;;;;;5054391;28;20202;-80
2022/06/10 13:03:30;;;;;;;0.90;0.50;;;22.30;82.00;;;;;;5051035;28;20456;-80
2022/06/10 13:06:03;;;;;;;0.60;0.60;;;22.30;83.10;;;;;;5054183;28;20441;-80
2022/06/10 13:08:48;;;;;;;0.60;0.60;;;22.30;83.90;;;;;;5053838;28;20792;-80
2022/06/10 13:11:37;;;;;;;0.60;0.50;;;22.20;84.30;;;;;;5053791;28;20438;-80
2022/06/10 13:14:18;;;;;;;0.50;0.50;;;22.20;82.70;;;;;;5053990;28;20493;-80
2022/06/10 13:16:48;;;;;;;0.70;0.60;;;22.20;81.90;;;;;;5053896;28;20441;-80
2022/06/10 13:19:33;;;;;;;0.70;0.50;;;22.10;83.00;;;;;;5053859;28;20450;-80
2022/06/10 13:22:30;;;;;;;0.50;0.50;;;22.10;82.90;;;;;;5053871;28;20841;-80
2022/06/10 13:25:22;;;;;;;0.40;0.40;;;22.10;80.90;;;;;;5053404;28;20933;-80
2022/06/10 13:27:49;;;;;;;0.50;0.50;;;22.00;82.70;;;;;;5048674;28;20473;-80
2022/06/10 13:30:20;;;;;;;0.40;0.40;;;21.90;82.40;;;;;;5053764;28;20441;-80